createdAt,value
2023-01-15T00:00:19.667Z,4.88
2023-01-15T00:02:47.840Z,4.95
2023-01-15T00:05:19.130Z,4.92
2023-01-15T00:07:51.957Z,4.93
2023-01-15T00:10:20.406Z,4.92
2023-01-15T00:12:48.777Z,4.92
2023-01-15T00:15:17.655Z,4.91
2023-01-15T00:17:46.044Z,4.89
2023-01-15T00:20:14.716Z,4.89
2023-01-15T00:22:43.097Z,4.89
2023-01-15T00:25:45.294Z,4.90
2023-01-15T00:28:15.239Z,4.90
2023-01-15T00:30:49.618Z,4.86
2023-01-15T00:33:17.974Z,4.87
2023-01-15T00:35:48.987Z,4.82
2023-01-15T00:38:17.307Z,4.80
2023-01-15T00:40:53.119Z,4.81
2023-01-15T00:43:21.352Z,4.80
2023-01-15T00:45:55.658Z,4.77
2023-01-15T00:48:24.043Z,4.80
2023-01-15T00:50:52.725Z,4.79
2023-01-15T00:53:21.099Z,4.83
2023-01-15T00:55:51.221Z,4.83
2023-01-15T00:58:19.417Z,4.83
2023-01-15T01:00:48.212Z,4.84
2023-01-15T01:03:16.506Z,4.83
2023-01-15T01:05:44.858Z,4.83
2023-01-15T01:08:14.357Z,4.84
2023-01-15T01:10:46.431Z,4.76
2023-01-15T01:13:16.411Z,4.84
2023-01-15T01:15:46.833Z,4.85
2023-01-15T01:18:15.088Z,4.88
2023-01-15T01:20:43.387Z,4.90
2023-01-15T01:23:11.605Z,4.89
2023-01-15T01:25:43.246Z,4.90
2023-01-15T01:28:11.882Z,4.92
2023-01-15T01:30:41.705Z,4.92
2023-01-15T01:33:10.184Z,4.92
2023-01-15T01:35:41.249Z,4.92
2023-01-15T01:38:10.690Z,4.94
2023-01-15T01:40:41.678Z,4.93
2023-01-15T01:43:21.028Z,4.96
2023-01-15T01:45:50.967Z,4.97
2023-01-15T01:48:20.844Z,4.96
2023-01-15T01:50:51.028Z,4.99
2023-01-15T01:53:24.405Z,5.02
2023-01-15T01:55:54.171Z,5.00
2023-01-15T01:58:24.489Z,5.00
2023-01-15T02:00:54.860Z,5.00
2023-01-15T02:03:29.196Z,5.01
2023-01-15T02:06:00.971Z,5.00
2023-01-15T02:08:29.657Z,4.98
2023-01-15T02:10:58.234Z,4.99
2023-01-15T02:13:33.533Z,5.00
2023-01-15T02:16:11.333Z,5.01
2023-01-15T02:18:48.968Z,5.03
2023-01-15T02:21:28.865Z,5.04
2023-01-15T02:24:16.348Z,5.05
2023-01-15T02:27:07.216Z,5.10
2023-01-15T02:29:56.773Z,5.11
2023-01-15T02:32:42.024Z,5.12
2023-01-15T02:35:42.519Z,5.12
2023-01-15T02:38:21.999Z,5.11
2023-01-15T02:40:55.703Z,5.14
2023-01-15T02:43:42.228Z,5.09
2023-01-15T02:46:12.125Z,5.12
2023-01-15T02:48:42.956Z,5.14
2023-01-15T02:51:15.373Z,5.18
2023-01-15T02:53:48.142Z,5.18
2023-01-15T02:56:18.858Z,5.18
2023-01-15T02:58:51.887Z,5.17
2023-01-15T03:01:23.559Z,5.17
2023-01-15T03:04:02.170Z,5.17
2023-01-15T03:06:45.681Z,5.17
2023-01-15T03:09:15.253Z,5.20
2023-01-15T03:11:50.995Z,5.24
2023-01-15T03:14:30.697Z,5.27
2023-01-15T03:17:02.105Z,5.29
2023-01-15T03:19:36.110Z,5.31
2023-01-15T03:22:08.430Z,5.36
2023-01-15T03:24:43.531Z,5.40
2023-01-15T03:27:12.353Z,5.43
2023-01-15T03:29:47.309Z,5.46
2023-01-15T03:32:17.431Z,5.47
2023-01-15T03:34:47.821Z,5.50
2023-01-15T03:37:16.504Z,5.52
2023-01-15T03:39:45.230Z,5.56
2023-01-15T03:42:29.139Z,5.59
2023-01-15T03:45:07.985Z,5.59
2023-01-15T03:47:47.536Z,5.59
2023-01-15T03:50:23.999Z,5.59
2023-01-15T03:53:04.867Z,5.59
2023-01-15T03:55:44.667Z,5.59
2023-01-15T03:58:21.638Z,5.57
2023-01-15T04:00:54.310Z,5.53
2023-01-15T04:03:25.783Z,5.47
2023-01-15T04:05:57.221Z,5.42
2023-01-15T04:08:37.732Z,5.38
2023-01-15T04:11:07.024Z,5.36
2023-01-15T04:13:35.893Z,5.30
2023-01-15T04:16:06.420Z,5.29
2023-01-15T04:18:40.339Z,5.23
2023-01-15T04:21:08.644Z,5.17
2023-01-15T04:23:42.540Z,5.13
2023-01-15T04:26:10.837Z,5.05
2023-01-15T04:28:39.121Z,5.00
2023-01-15T04:31:08.995Z,4.87
2023-01-15T04:33:37.528Z,4.81
2023-01-15T04:36:06.634Z,4.71
2023-01-15T04:38:36.258Z,4.59
2023-01-15T04:41:23.187Z,4.54
2023-01-15T04:44:10.062Z,4.50
2023-01-15T04:46:41.871Z,4.42
2023-01-15T04:49:12.304Z,4.41
2023-01-15T04:51:41.045Z,4.39
2023-01-15T04:54:09.900Z,4.37
2023-01-15T04:56:41.071Z,4.34
2023-01-15T04:59:10.758Z,4.29
2023-01-15T05:01:48.561Z,4.26
2023-01-15T05:04:26.625Z,4.23
2023-01-15T05:06:54.871Z,4.18
2023-01-15T05:09:23.083Z,4.18
2023-01-15T05:11:51.242Z,4.15
2023-01-15T05:14:19.876Z,4.11
2023-01-15T05:16:49.631Z,4.08
2023-01-15T05:19:17.942Z,4.03
2023-01-15T05:21:46.616Z,4.01
2023-01-15T05:24:17.140Z,3.97
2023-01-15T05:26:45.679Z,3.87
2023-01-15T05:29:14.614Z,3.90
2023-01-15T05:31:46.281Z,3.84
2023-01-15T05:34:16.441Z,3.83
2023-01-15T05:36:45.855Z,3.81
2023-01-15T05:39:14.120Z,3.80
2023-01-15T05:41:51.353Z,3.79
2023-01-15T05:44:23.119Z,3.80
2023-01-15T05:46:52.217Z,3.79
2023-01-15T05:49:27.107Z,3.79
2023-01-15T05:51:55.958Z,3.78
2023-01-15T05:54:26.373Z,3.78
2023-01-15T05:56:56.486Z,3.78
2023-01-15T05:59:26.710Z,3.79
2023-01-15T06:01:55.310Z,3.79
2023-01-15T06:04:25.565Z,3.76
2023-01-15T06:06:55.735Z,3.75
2023-01-15T06:09:24.177Z,3.74
2023-01-15T06:11:53.825Z,3.72
2023-01-15T06:14:25.355Z,3.68
2023-01-15T06:16:53.619Z,3.65
2023-01-15T06:19:21.957Z,3.65
2023-01-15T06:21:51.804Z,3.66
2023-01-15T06:24:20.896Z,3.70
2023-01-15T06:26:49.231Z,3.76
2023-01-15T06:29:19.067Z,3.81
2023-01-15T06:31:48.357Z,3.87
2023-01-15T06:34:16.991Z,3.97
2023-01-15T06:36:45.394Z,4.03
2023-01-15T06:39:15.124Z,4.07
2023-01-15T06:42:00.927Z,4.11
2023-01-15T06:44:46.762Z,4.16
2023-01-15T06:47:24.220Z,4.15
2023-01-15T06:49:55.120Z,4.17
2023-01-15T06:52:24.620Z,4.20
2023-01-15T06:54:55.012Z,4.20
2023-01-15T06:57:23.586Z,4.27
2023-01-15T06:59:59.863Z,4.29
2023-01-15T07:02:28.140Z,4.28
2023-01-15T07:04:58.021Z,4.30
2023-01-15T07:07:26.649Z,4.25
2023-01-15T07:09:57.042Z,4.27
2023-01-15T07:12:25.308Z,4.27
2023-01-15T07:14:54.143Z,4.21
2023-01-15T07:17:22.444Z,4.17
2023-01-15T07:19:52.141Z,4.14
2023-01-15T07:22:20.458Z,4.09
2023-01-15T07:24:48.993Z,4.05
2023-01-15T07:27:18.663Z,4.01
2023-01-15T07:29:48.363Z,3.98
2023-01-15T07:32:17.001Z,3.95
2023-01-15T07:34:46.115Z,3.93
2023-01-15T07:37:14.317Z,3.93
2023-01-15T07:39:42.552Z,3.90
2023-01-15T07:42:37.810Z,3.88
2023-01-15T07:45:27.388Z,3.85
2023-01-15T07:48:13.385Z,3.84
2023-01-15T07:50:41.626Z,3.80
2023-01-15T07:53:09.796Z,3.79
2023-01-15T07:55:38.263Z,3.72
2023-01-15T07:58:06.536Z,3.80
2023-01-15T08:00:36.151Z,3.80
2023-01-15T08:03:07.557Z,3.82
2023-01-15T08:05:35.779Z,3.81
2023-01-15T08:08:06.610Z,3.82
2023-01-15T08:10:59.039Z,3.80
2023-01-15T08:13:44.744Z,3.81
2023-01-15T08:16:15.353Z,3.83
2023-01-15T08:18:52.583Z,3.83
2023-01-15T08:21:21.795Z,3.79
2023-01-15T08:24:26.078Z,3.86
2023-01-15T08:26:55.187Z,3.88
2023-01-15T08:29:23.919Z,3.90
2023-01-15T08:31:53.784Z,3.93
2023-01-15T08:34:22.388Z,3.95
2023-01-15T08:36:57.605Z,3.97
2023-01-15T08:39:25.907Z,4.00
2023-01-15T08:41:54.268Z,4.02
2023-01-15T08:44:23.769Z,4.05
2023-01-15T08:46:55.504Z,4.11
2023-01-15T08:49:23.969Z,4.15
2023-01-15T08:51:53.466Z,4.20
2023-01-15T08:54:24.618Z,4.27
2023-01-15T08:56:58.385Z,4.36
2023-01-15T08:59:27.095Z,4.44
2023-01-15T09:01:56.978Z,4.53
2023-01-15T09:04:25.649Z,4.64
2023-01-15T09:06:54.307Z,4.74
2023-01-15T09:09:22.734Z,4.84
2023-01-15T09:11:51.063Z,4.91
2023-01-15T09:15:00.292Z,4.97
2023-01-15T09:17:10.297Z,5.01
2023-01-15T09:19:39.155Z,5.07
2023-01-15T09:22:07.626Z,5.07
2023-01-15T09:24:35.931Z,5.15
2023-01-15T09:27:04.676Z,5.20
2023-01-15T09:29:34.377Z,5.24
2023-01-15T09:32:02.827Z,5.30
2023-01-15T09:34:32.601Z,5.34
2023-01-15T09:37:02.385Z,5.39
2023-01-15T09:39:30.878Z,5.38
2023-01-15T09:42:16.406Z,5.46
2023-01-15T09:45:08.979Z,5.48
2023-01-15T09:47:44.620Z,5.50
2023-01-15T09:50:25.416Z,5.49
2023-01-15T09:53:12.052Z,5.54
2023-01-15T09:55:46.978Z,5.64
2023-01-15T09:58:18.118Z,5.68
2023-01-15T10:00:48.682Z,5.85
2023-01-15T10:03:27.050Z,5.88
2023-01-15T10:06:04.191Z,5.95
2023-01-15T10:08:36.242Z,6.02
2023-01-15T10:11:07.475Z,6.05
2023-01-15T10:13:44.594Z,6.02
2023-01-15T10:16:15.397Z,6.02
2023-01-15T10:18:43.873Z,6.10
2023-01-15T10:21:24.403Z,6.12
2023-01-15T10:24:03.018Z,6.09
2023-01-15T10:26:36.659Z,6.16
2023-01-15T10:29:13.812Z,6.13
2023-01-15T10:32:19.336Z,6.16
2023-01-15T10:35:09.596Z,6.19
2023-01-15T10:37:46.261Z,6.22
2023-01-15T10:40:28.492Z,6.28
2023-01-15T10:43:03.811Z,6.38
2023-01-15T10:45:35.791Z,6.48
2023-01-15T10:48:12.746Z,6.52
2023-01-15T10:50:41.995Z,6.64
2023-01-15T10:53:36.691Z,6.67
2023-01-15T10:56:14.180Z,6.74
2023-01-15T10:58:47.467Z,6.74
2023-01-15T11:01:19.944Z,6.69
2023-01-15T11:03:48.893Z,6.69
2023-01-15T11:06:24.983Z,6.67
2023-01-15T11:09:12.675Z,6.64
2023-01-15T11:12:03.078Z,6.61
2023-01-15T11:14:57.033Z,6.63
2023-01-15T11:17:43.795Z,6.60
2023-01-15T11:20:19.223Z,6.57
2023-01-15T11:22:50.061Z,6.58
2023-01-15T11:25:31.295Z,6.62
2023-01-15T11:28:01.781Z,6.64
2023-01-15T11:30:33.569Z,6.60
2023-01-15T11:33:05.378Z,6.53
2023-01-15T11:35:35.191Z,6.51
2023-01-15T11:38:09.521Z,6.45
2023-01-15T11:40:53.657Z,6.33
2023-01-15T11:43:41.583Z,6.26
2023-01-15T11:46:42.293Z,6.15
2023-01-15T11:49:29.267Z,6.06
2023-01-15T11:51:59.972Z,6.01
2023-01-15T11:54:28.997Z,5.97
2023-01-15T11:57:00.324Z,5.93
2023-01-15T11:59:28.727Z,5.90
2023-01-15T12:02:08.964Z,5.91
2023-01-15T12:04:45.317Z,5.94
2023-01-15T12:07:15.638Z,6.03
2023-01-15T12:10:02.684Z,6.09
2023-01-15T12:12:43.671Z,6.12
2023-01-15T12:15:24.055Z,6.14
2023-01-15T12:18:16.329Z,6.16
2023-01-15T12:20:59.798Z,6.24
2023-01-15T12:23:46.184Z,6.29
2023-01-15T12:26:43.487Z,6.28
2023-01-15T12:29:23.419Z,6.28
2023-01-15T12:31:58.915Z,6.28
2023-01-15T12:34:43.284Z,6.27
2023-01-15T12:37:21.226Z,6.26
2023-01-15T12:39:53.753Z,6.19
2023-01-15T12:42:52.889Z,6.11
2023-01-15T12:45:27.185Z,6.01
2023-01-15T12:48:02.444Z,5.98
2023-01-15T12:50:44.853Z,5.92
2023-01-15T12:53:21.555Z,5.86
2023-01-15T12:55:56.261Z,5.82
2023-01-15T12:58:47.201Z,5.74
2023-01-15T13:01:27.074Z,5.73
2023-01-15T13:04:14.820Z,5.67
2023-01-15T13:06:48.768Z,5.65
2023-01-15T13:09:36.480Z,5.59
2023-01-15T13:12:05.138Z,5.62
2023-01-15T13:14:33.547Z,5.61
2023-01-15T13:17:18.597Z,5.59
2023-01-15T13:19:59.898Z,5.56
2023-01-15T13:22:31.905Z,5.53
2023-01-15T13:25:30.682Z,5.56
2023-01-15T13:28:14.436Z,5.49
2023-01-15T13:30:54.278Z,5.46
2023-01-15T13:33:31.149Z,5.40
2023-01-15T13:36:08.979Z,5.32
2023-01-15T13:38:43.376Z,5.30
2023-01-15T13:41:12.063Z,5.21
2023-01-15T13:43:44.092Z,5.19
2023-01-15T13:46:14.823Z,5.17
2023-01-15T13:48:48.833Z,5.18
2023-01-15T13:51:29.366Z,5.18
2023-01-15T13:54:33.965Z,5.19
2023-01-15T13:57:09.562Z,5.17
2023-01-15T13:59:44.611Z,5.17
2023-01-15T14:02:26.153Z,5.17
2023-01-15T14:04:57.451Z,5.12
2023-01-15T14:07:37.728Z,5.07
2023-01-15T14:10:25.113Z,5.00
2023-01-15T14:13:07.980Z,4.96
2023-01-15T14:15:47.689Z,4.94
2023-01-15T14:18:40.554Z,4.92
2023-01-15T14:21:24.736Z,4.90
2023-01-15T14:24:18.591Z,4.87
2023-01-15T14:26:55.533Z,4.83
2023-01-15T14:29:51.012Z,4.79
2023-01-15T14:32:30.122Z,4.73
2023-01-15T14:35:00.738Z,4.68
2023-01-15T14:37:57.640Z,4.64
2023-01-15T14:40:31.517Z,4.62
2023-01-15T14:43:02.235Z,4.58
2023-01-15T14:45:33.659Z,4.56
2023-01-15T14:48:16.725Z,4.59
2023-01-15T14:50:45.735Z,4.54
2023-01-15T14:53:33.889Z,4.54
2023-01-15T14:56:13.153Z,4.54
2023-01-15T14:58:56.303Z,4.55
2023-01-15T15:01:36.858Z,4.56
2023-01-15T15:04:23.611Z,4.59
2023-01-15T15:06:55.548Z,4.60
2023-01-15T15:09:34.199Z,4.61
2023-01-15T15:12:24.222Z,4.58
2023-01-15T15:15:01.697Z,4.65
2023-01-15T15:17:41.265Z,4.64
2023-01-15T15:20:29.374Z,4.62
2023-01-15T15:23:04.889Z,4.59
2023-01-15T15:25:39.533Z,4.55
2023-01-15T15:28:11.659Z,4.49
2023-01-15T15:30:45.495Z,4.45
2023-01-15T15:33:19.241Z,4.34
2023-01-15T15:35:51.055Z,4.34
2023-01-15T15:38:22.549Z,4.27
2023-01-15T15:45:03.105Z,4.07
2023-01-15T15:47:57.307Z,3.98
2023-01-15T15:50:34.186Z,3.91
2023-01-15T15:53:06.685Z,3.86
2023-01-15T15:55:40.512Z,3.81
2023-01-15T15:58:11.178Z,3.78
2023-01-15T16:00:43.471Z,3.74
2023-01-15T16:03:20.928Z,3.71
2023-01-15T16:06:05.794Z,3.65
2023-01-15T16:08:35.772Z,3.67
2023-01-15T16:11:07.449Z,3.64
2023-01-15T16:13:39.745Z,3.65
2023-01-15T16:16:10.635Z,3.63
2023-01-15T16:18:44.599Z,3.61
2023-01-15T16:21:20.057Z,3.57
2023-01-15T16:23:58.113Z,3.55
2023-01-15T16:26:34.455Z,3.55
2023-01-15T16:29:05.173Z,3.55
2023-01-15T16:31:39.143Z,3.53
2023-01-15T16:34:07.739Z,3.54
2023-01-15T16:36:41.521Z,3.54
2023-01-15T16:39:22.286Z,3.54
2023-01-15T16:41:52.405Z,3.54
2023-01-15T16:44:33.700Z,3.57
2023-01-15T16:47:09.419Z,3.57
2023-01-15T16:49:37.686Z,3.59
2023-01-15T16:52:50.416Z,3.63
2023-01-15T16:55:41.545Z,3.68
2023-01-15T16:58:22.668Z,3.68
2023-01-15T17:00:53.375Z,3.66
2023-01-15T17:03:25.385Z,3.68
2023-01-15T17:05:56.403Z,3.69
2023-01-15T17:08:38.761Z,3.68
2023-01-15T17:11:17.561Z,3.65
2023-01-15T17:13:46.796Z,3.68
2023-01-15T17:16:20.443Z,3.69
2023-01-15T17:18:51.949Z,3.74
2023-01-15T17:21:23.745Z,3.79
2023-01-15T17:23:52.480Z,3.89
2023-01-15T17:26:23.272Z,3.98
2023-01-15T17:28:57.695Z,4.08
2023-01-15T17:31:28.557Z,4.16
2023-01-15T17:33:59.562Z,4.22
2023-01-15T17:36:29.451Z,4.28
2023-01-15T17:38:58.986Z,4.30
2023-01-15T17:41:28.291Z,4.33
2023-01-15T17:43:57.026Z,4.39
2023-01-15T17:46:25.632Z,4.42
2023-01-15T17:48:54.045Z,4.43
2023-01-15T17:51:24.042Z,4.40
2023-01-15T17:53:52.570Z,4.42
2023-01-15T17:56:38.405Z,4.36
2023-01-15T17:59:24.433Z,4.39
2023-01-15T18:02:10.454Z,4.37
2023-01-15T18:05:00.201Z,4.36
2023-01-15T18:07:33.959Z,4.34
2023-01-15T18:10:03.511Z,4.35
2023-01-15T18:12:32.277Z,4.36
2023-01-15T18:15:00.586Z,4.33
2023-01-15T18:17:31.817Z,4.32
2023-01-15T18:20:00.521Z,4.32
2023-01-15T18:22:31.222Z,4.34
2023-01-15T18:24:59.484Z,4.33
2023-01-15T18:27:30.390Z,4.32
2023-01-15T18:29:59.429Z,4.31
2023-01-15T18:32:30.752Z,4.33
2023-01-15T18:34:59.271Z,4.30
2023-01-15T18:37:36.483Z,4.27
2023-01-15T18:40:06.300Z,4.26
2023-01-15T18:42:51.848Z,4.30
2023-01-15T18:45:37.849Z,4.30
2023-01-15T18:48:08.302Z,4.29
2023-01-15T18:50:36.892Z,4.28
2023-01-15T18:53:08.762Z,4.30
2023-01-15T18:55:38.558Z,4.28
2023-01-15T18:58:06.966Z,4.29
2023-01-15T19:00:35.524Z,4.30
2023-01-15T19:03:04.984Z,4.28
2023-01-15T19:05:34.545Z,4.27
2023-01-15T19:08:03.325Z,4.29
2023-01-15T19:10:33.137Z,4.27
2023-01-15T19:13:03.269Z,4.28
2023-01-15T19:15:49.399Z,4.29
2023-01-15T19:18:35.913Z,4.32
2023-01-15T19:21:10.527Z,4.32
2023-01-15T19:23:40.919Z,4.33
2023-01-15T19:26:11.043Z,4.31
2023-01-15T19:28:42.413Z,4.31
2023-01-15T19:31:29.387Z,4.27
2023-01-15T19:34:31.188Z,4.30
2023-01-15T19:36:48.696Z,4.29
2023-01-15T19:39:18.614Z,4.34
2023-01-15T19:42:08.314Z,4.34
2023-01-15T19:44:53.923Z,4.36
2023-01-15T19:47:44.111Z,4.38
2023-01-15T19:50:21.308Z,4.39
2023-01-15T19:52:51.460Z,4.39
2023-01-15T19:55:21.489Z,4.35
2023-01-15T19:58:00.381Z,4.35
2023-01-15T20:00:29.327Z,4.31
2023-01-15T20:02:58.990Z,4.34
2023-01-15T20:05:30.292Z,4.37
2023-01-15T20:07:59.547Z,4.37
2023-01-15T20:10:30.087Z,4.38
2023-01-15T20:13:17.314Z,4.36
2023-01-15T20:15:51.603Z,4.36
2023-01-15T20:18:22.904Z,4.40
2023-01-15T20:20:51.535Z,4.36
2023-01-15T20:23:19.804Z,4.39
2023-01-15T20:25:57.315Z,4.35
2023-01-15T20:28:27.092Z,4.33
2023-01-15T20:30:56.424Z,4.30
2023-01-15T20:33:25.047Z,4.32
2023-01-15T20:35:54.589Z,4.32
2023-01-15T20:38:24.949Z,4.32
2023-01-15T20:40:53.390Z,4.35
2023-01-15T20:43:40.481Z,4.35
2023-01-15T20:46:17.632Z,4.33
2023-01-15T20:49:03.236Z,4.32
2023-01-15T20:51:33.355Z,4.32
2023-01-15T20:54:16.546Z,4.29
2023-01-15T20:56:44.912Z,4.24
2023-01-15T20:59:21.537Z,4.15
2023-01-15T21:01:53.543Z,4.17
2023-01-15T21:04:30.192Z,4.21
2023-01-15T21:06:58.621Z,4.21
2023-01-15T21:09:26.995Z,4.20
2023-01-15T21:11:55.588Z,4.19
2023-01-15T21:14:25.294Z,4.21
2023-01-15T21:16:55.170Z,4.22
2023-01-15T21:19:24.923Z,4.25
2023-01-15T21:21:53.273Z,4.22
2023-01-15T21:24:23.524Z,4.26
2023-01-15T21:26:54.249Z,4.26
2023-01-15T21:29:24.373Z,4.28
2023-01-15T21:31:54.095Z,4.28
2023-01-15T21:34:24.124Z,4.28
2023-01-15T21:37:02.965Z,4.28
2023-01-15T21:39:43.271Z,4.25
2023-01-15T21:42:34.837Z,4.32
2023-01-15T21:45:06.735Z,4.28
2023-01-15T21:47:37.021Z,4.33
2023-01-15T21:50:07.735Z,4.36
2023-01-15T21:52:37.190Z,4.37
2023-01-15T21:55:07.618Z,4.38
2023-01-15T21:57:35.942Z,4.39
2023-01-15T22:00:08.029Z,4.41
2023-01-15T22:02:44.881Z,4.43
2023-01-15T22:05:14.879Z,4.46
2023-01-15T22:07:51.567Z,4.45
2023-01-15T22:10:20.208Z,4.46
2023-01-15T22:12:49.470Z,4.49
2023-01-15T22:15:17.928Z,4.49
2023-01-15T22:17:47.043Z,4.48
2023-01-15T22:20:16.948Z,4.45
2023-01-15T22:22:45.141Z,4.41
2023-01-15T22:25:15.810Z,4.38
2023-01-15T22:27:44.117Z,4.35
2023-01-15T22:30:15.721Z,4.32
2023-01-15T22:32:44.336Z,4.32
2023-01-15T22:35:14.352Z,4.33
2023-01-15T22:37:44.051Z,4.38
2023-01-15T22:40:13.809Z,4.42
2023-01-15T22:42:42.093Z,4.47
2023-01-15T22:45:20.779Z,4.46
2023-01-15T22:47:51.221Z,4.52
2023-01-15T22:50:19.936Z,4.57
2023-01-15T22:52:52.174Z,4.58
2023-01-15T22:55:20.552Z,4.61
2023-01-15T22:57:49.295Z,4.57
2023-01-15T23:00:19.043Z,4.64
2023-01-15T23:02:58.231Z,4.61
2023-01-15T23:05:26.460Z,4.64
2023-01-15T23:07:56.386Z,4.65
2023-01-15T23:10:24.595Z,4.65
2023-01-15T23:12:52.886Z,4.67
2023-01-15T23:15:21.143Z,4.66
2023-01-15T23:29:12.600Z,4.67
2023-01-15T23:31:40.829Z,4.69
2023-01-15T23:34:10.227Z,4.72
2023-01-15T23:36:39.402Z,4.73
2023-01-15T23:39:08.119Z,4.79
2023-01-15T23:41:53.991Z,4.81
2023-01-15T23:44:41.562Z,4.84
2023-01-15T23:47:10.236Z,4.81
2023-01-15T23:49:38.596Z,4.82
2023-01-15T23:52:07.954Z,4.88
2023-01-15T23:54:36.333Z,4.92
2023-01-15T23:57:04.919Z,4.95
2023-01-15T23:59:34.632Z,4.98
